sensor_id;sensor_type;location;lat;lon;timestamp;P1;durP1;ratioP1;P2;durP2;ratioP2
10383;SDS011;5238;43.508;4.980;2023-10-13T00:01:02;17.20;;;15.38;;
10383;SDS011;5238;43.508;4.980;2023-10-13T00:03:32;16.95;;;15.25;;
10383;SDS011;5238;43.508;4.980;2023-10-13T00:05:59;16.73;;;14.68;;
10383;SDS011;5238;43.508;4.980;2023-10-13T00:08:29;16.70;;;14.90;;
10383;SDS011;5238;43.508;4.980;2023-10-13T00:10:56;16.70;;;14.93;;
10383;SDS011;5238;43.508;4.980;2023-10-13T00:13:25;19.15;;;14.82;;
10383;SDS011;5238;43.508;4.980;2023-10-13T00:15:54;20.23;;;14.45;;
10383;SDS011;5238;43.508;4.980;2023-10-13T00:18:24;16.95;;;14.15;;
10383;SDS011;5238;43.508;4.980;2023-10-13T00:20:52;16.35;;;14.65;;
10383;SDS011;5238;43.508;4.980;2023-10-13T00:23:21;15.57;;;13.88;;
10383;SDS011;5238;43.508;4.980;2023-10-13T00:25:53;16.50;;;14.10;;
10383;SDS011;5238;43.508;4.980;2023-10-13T00:28:24;15.60;;;14.07;;
10383;SDS011;5238;43.508;4.980;2023-10-13T00:31:00;16.10;;;14.18;;
10383;SDS011;5238;43.508;4.980;2023-10-13T00:33:35;17.65;;;14.00;;
10383;SDS011;5238;43.508;4.980;2023-10-13T00:36:03;15.98;;;14.43;;
10383;SDS011;5238;43.508;4.980;2023-10-13T00:38:30;17.85;;;13.52;;
10383;SDS011;5238;43.508;4.980;2023-10-13T00:40:59;15.98;;;14.38;;
10383;SDS011;5238;43.508;4.980;2023-10-13T00:43:43;14.43;;;13.02;;
10383;SDS011;5238;43.508;4.980;2023-10-13T00:46:10;15.55;;;14.05;;
10383;SDS011;5238;43.508;4.980;2023-10-13T00:48:40;15.15;;;13.55;;
10383;SDS011;5238;43.508;4.980;2023-10-13T00:51:09;15.57;;;14.07;;
10383;SDS011;5238;43.508;4.980;2023-10-13T00:53:44;16.48;;;14.77;;
10383;SDS011;5238;43.508;4.980;2023-10-13T00:56:13;16.98;;;14.85;;
10383;SDS011;5238;43.508;4.980;2023-10-13T00:58:47;16.48;;;14.73;;
10383;SDS011;5238;43.508;4.980;2023-10-13T01:01:15;18.20;;;15.35;;
10383;SDS011;5238;43.508;4.980;2023-10-13T01:03:47;16.77;;;14.55;;
10383;SDS011;5238;43.508;4.980;2023-10-13T01:06:14;17.23;;;15.07;;
10383;SDS011;5238;43.508;4.980;2023-10-13T01:08:45;18.38;;;15.05;;
10383;SDS011;5238;43.508;4.980;2023-10-13T01:11:17;18.98;;;14.63;;
10383;SDS011;5238;43.508;4.980;2023-10-13T01:13:48;17.58;;;15.63;;
10383;SDS011;5238;43.508;4.980;2023-10-13T01:16:16;20.48;;;15.13;;
10383;SDS011;5238;43.508;4.980;2023-10-13T01:18:46;18.92;;;15.95;;
10383;SDS011;5238;43.508;4.980;2023-10-13T01:21:15;17.77;;;15.88;;
10383;SDS011;5238;43.508;4.980;2023-10-13T01:23:47;18.08;;;16.15;;
10383;SDS011;5238;43.508;4.980;2023-10-13T01:26:13;16.75;;;15.13;;
10383;SDS011;5238;43.508;4.980;2023-10-13T01:28:46;19.30;;;16.48;;
10383;SDS011;5238;43.508;4.980;2023-10-13T01:31:13;17.85;;;15.98;;
10383;SDS011;5238;43.508;4.980;2023-10-13T01:33:50;17.95;;;15.18;;
10383;SDS011;5238;43.508;4.980;2023-10-13T01:36:19;18.38;;;15.82;;
10383;SDS011;5238;43.508;4.980;2023-10-13T01:38:51;21.70;;;16.25;;
10383;SDS011;5238;43.508;4.980;2023-10-13T01:41:17;16.90;;;15.13;;
10383;SDS011;5238;43.508;4.980;2023-10-13T01:43:45;17.63;;;15.45;;
10383;SDS011;5238;43.508;4.980;2023-10-13T01:46:11;17.55;;;15.85;;
10383;SDS011;5238;43.508;4.980;2023-10-13T01:48:40;16.70;;;14.90;;
10383;SDS011;5238;43.508;4.980;2023-10-13T01:51:08;17.23;;;15.43;;
10383;SDS011;5238;43.508;4.980;2023-10-13T01:53:39;17.42;;;15.63;;
10383;SDS011;5238;43.508;4.980;2023-10-13T01:56:08;18.63;;;16.70;;
10383;SDS011;5238;43.508;4.980;2023-10-13T01:58:39;17.27;;;15.48;;
10383;SDS011;5238;43.508;4.980;2023-10-13T02:01:12;18.08;;;15.82;;
10383;SDS011;5238;43.508;4.980;2023-10-13T02:03:51;18.58;;;15.50;;
10383;SDS011;5238;43.508;4.980;2023-10-13T02:06:26;20.23;;;16.05;;
10383;SDS011;5238;43.508;4.980;2023-10-13T02:08:57;17.45;;;15.65;;
10383;SDS011;5238;43.508;4.980;2023-10-13T02:11:31;18.13;;;15.45;;
10383;SDS011;5238;43.508;4.980;2023-10-13T02:13:58;16.42;;;14.82;;
10383;SDS011;5238;43.508;4.980;2023-10-13T02:16:25;17.98;;;15.65;;
10383;SDS011;5238;43.508;4.980;2023-10-13T02:18:52;17.77;;;15.77;;
10383;SDS011;5238;43.508;4.980;2023-10-13T02:21:18;17.40;;;15.43;;
10383;SDS011;5238;43.508;4.980;2023-10-13T02:23:46;16.92;;;15.13;;
10383;SDS011;5238;43.508;4.980;2023-10-13T02:26:25;18.17;;;15.73;;
10383;SDS011;5238;43.508;4.980;2023-10-13T02:28:58;19.50;;;16.08;;
10383;SDS011;5238;43.508;4.980;2023-10-13T02:31:27;17.48;;;15.38;;
10383;SDS011;5238;43.508;4.980;2023-10-13T02:33:54;16.38;;;14.68;;
10383;SDS011;5238;43.508;4.980;2023-10-13T02:36:20;17.45;;;15.32;;
10383;SDS011;5238;43.508;4.980;2023-10-13T02:39:01;16.75;;;15.05;;
10383;SDS011;5238;43.508;4.980;2023-10-13T02:41:32;16.23;;;14.55;;
10383;SDS011;5238;43.508;4.980;2023-10-13T02:44:03;17.15;;;15.20;;
10383;SDS011;5238;43.508;4.980;2023-10-13T02:46:33;17.27;;;15.48;;
10383;SDS011;5238;43.508;4.980;2023-10-13T02:49:01;16.67;;;14.98;;
10383;SDS011;5238;43.508;4.980;2023-10-13T02:51:35;17.52;;;15.02;;
10383;SDS011;5238;43.508;4.980;2023-10-13T02:54:01;17.00;;;15.13;;
10383;SDS011;5238;43.508;4.980;2023-10-13T02:56:35;17.10;;;15.30;;
10383;SDS011;5238;43.508;4.980;2023-10-13T02:59:01;16.73;;;14.95;;
10383;SDS011;5238;43.508;4.980;2023-10-13T03:01:31;16.85;;;15.07;;
10383;SDS011;5238;43.508;4.980;2023-10-13T03:03:59;17.60;;;15.35;;
10383;SDS011;5238;43.508;4.980;2023-10-13T03:06:28;16.38;;;14.68;;
10383;SDS011;5238;43.508;4.980;2023-10-13T03:08:57;16.75;;;13.93;;
10383;SDS011;5238;43.508;4.980;2023-10-13T03:11:39;16.23;;;14.63;;
10383;SDS011;5238;43.508;4.980;2023-10-13T03:14:14;16.75;;;15.10;;
10383;SDS011;5238;43.508;4.980;2023-10-13T03:16:51;15.13;;;13.55;;
10383;SDS011;5238;43.508;4.980;2023-10-13T03:19:17;16.85;;;14.50;;
10383;SDS011;5238;43.508;4.980;2023-10-13T03:21:45;16.98;;;14.68;;
10383;SDS011;5238;43.508;4.980;2023-10-13T03:24:20;15.90;;;14.02;;
10383;SDS011;5238;43.508;4.980;2023-10-13T03:26:58;14.98;;;13.10;;
10383;SDS011;5238;43.508;4.980;2023-10-13T03:29:35;15.43;;;13.93;;
10383;SDS011;5238;43.508;4.980;2023-10-13T03:32:01;15.60;;;13.65;;
10383;SDS011;5238;43.508;4.980;2023-10-13T03:34:36;14.63;;;13.10;;
10383;SDS011;5238;43.508;4.980;2023-10-13T03:37:06;15.05;;;12.90;;
10383;SDS011;5238;43.508;4.980;2023-10-13T03:39:42;15.65;;;14.00;;
10383;SDS011;5238;43.508;4.980;2023-10-13T03:42:10;15.18;;;13.50;;
10383;SDS011;5238;43.508;4.980;2023-10-13T03:44:45;14.68;;;13.18;;
10383;SDS011;5238;43.508;4.980;2023-10-13T03:47:13;14.23;;;12.82;;
10383;SDS011;5238;43.508;4.980;2023-10-13T03:49:52;14.70;;;13.13;;
10383;SDS011;5238;43.508;4.980;2023-10-13T03:52:39;14.40;;;12.95;;
10383;SDS011;5238;43.508;4.980;2023-10-13T03:55:06;14.50;;;13.05;;
10383;SDS011;5238;43.508;4.980;2023-10-13T03:57:41;15.32;;;13.73;;
10383;SDS011;5238;43.508;4.980;2023-10-13T04:00:10;16.25;;;14.18;;
10383;SDS011;5238;43.508;4.980;2023-10-13T04:02:46;15.05;;;13.57;;
10383;SDS011;5238;43.508;4.980;2023-10-13T04:05:19;14.77;;;13.27;;
10383;SDS011;5238;43.508;4.980;2023-10-13T04:08:01;14.77;;;13.25;;
10383;SDS011;5238;43.508;4.980;2023-10-13T04:10:46;14.15;;;12.55;;
10383;SDS011;5238;43.508;4.980;2023-10-13T04:13:30;14.52;;;13.10;;
10383;SDS011;5238;43.508;4.980;2023-10-13T04:16:16;15.18;;;13.57;;
10383;SDS011;5238;43.508;4.980;2023-10-13T04:18:57;14.07;;;12.68;;
10383;SDS011;5238;43.508;4.980;2023-10-13T04:21:33;15.52;;;12.98;;
10383;SDS011;5238;43.508;4.980;2023-10-13T04:24:08;13.75;;;12.48;;
10383;SDS011;5238;43.508;4.980;2023-10-13T04:26:49;14.60;;;11.73;;
10383;SDS011;5238;43.508;4.980;2023-10-13T04:29:30;14.15;;;12.15;;
10383;SDS011;5238;43.508;4.980;2023-10-13T04:32:12;14.32;;;12.82;;
10383;SDS011;5238;43.508;4.980;2023-10-13T04:34:40;13.32;;;11.98;;
10383;SDS011;5238;43.508;4.980;2023-10-13T04:37:10;15.57;;;13.45;;
10383;SDS011;5238;43.508;4.980;2023-10-13T04:39:53;15.88;;;12.32;;
10383;SDS011;5238;43.508;4.980;2023-10-13T04:42:24;13.10;;;11.80;;
10383;SDS011;5238;43.508;4.980;2023-10-13T04:45:15;13.32;;;11.90;;
10383;SDS011;5238;43.508;4.980;2023-10-13T04:48:05;14.35;;;12.18;;
10383;SDS011;5238;43.508;4.980;2023-10-13T04:50:58;14.40;;;11.82;;
10383;SDS011;5238;43.508;4.980;2023-10-13T04:53:40;12.90;;;11.55;;
10383;SDS011;5238;43.508;4.980;2023-10-13T04:56:21;13.32;;;11.98;;
10383;SDS011;5238;43.508;4.980;2023-10-13T04:59:05;13.05;;;11.68;;
10383;SDS011;5238;43.508;4.980;2023-10-13T05:01:43;12.80;;;11.20;;
10383;SDS011;5238;43.508;4.980;2023-10-13T05:04:28;12.85;;;11.55;;
10383;SDS011;5238;43.508;4.980;2023-10-13T05:07:24;13.15;;;11.60;;
10383;SDS011;5238;43.508;4.980;2023-10-13T05:10:08;11.98;;;10.77;;
10383;SDS011;5238;43.508;4.980;2023-10-13T05:12:53;13.30;;;10.63;;
10383;SDS011;5238;43.508;4.980;2023-10-13T05:15:42;13.07;;;11.23;;
10383;SDS011;5238;43.508;4.980;2023-10-13T05:18:27;12.60;;;11.05;;
10383;SDS011;5238;43.508;4.980;2023-10-13T05:21:21;13.32;;;11.63;;
10383;SDS011;5238;43.508;4.980;2023-10-13T05:24:06;12.50;;;11.20;;
10383;SDS011;5238;43.508;4.980;2023-10-13T05:26:51;11.60;;;10.48;;
10383;SDS011;5238;43.508;4.980;2023-10-13T05:29:38;12.20;;;11.00;;
10383;SDS011;5238;43.508;4.980;2023-10-13T05:32:23;11.95;;;10.75;;
10383;SDS011;5238;43.508;4.980;2023-10-13T05:35:07;11.23;;;10.02;;
10383;SDS011;5238;43.508;4.980;2023-10-13T05:37:53;14.13;;;10.93;;
10383;SDS011;5238;43.508;4.980;2023-10-13T05:40:37;11.20;;;10.10;;
10383;SDS011;5238;43.508;4.980;2023-10-13T05:43:22;10.70;;;9.60;;
10383;SDS011;5238;43.508;4.980;2023-10-13T05:46:06;11.85;;;10.65;;
10383;SDS011;5238;43.508;4.980;2023-10-13T05:48:50;11.55;;;10.10;;
10383;SDS011;5238;43.508;4.980;2023-10-13T05:51:49;11.77;;;10.00;;
10383;SDS011;5238;43.508;4.980;2023-10-13T05:54:31;10.98;;;9.88;;
10383;SDS011;5238;43.508;4.980;2023-10-13T05:57:16;11.15;;;9.93;;
10383;SDS011;5238;43.508;4.980;2023-10-13T06:00:00;10.82;;;9.82;;
10383;SDS011;5238;43.508;4.980;2023-10-13T06:02:45;12.05;;;10.32;;
10383;SDS011;5238;43.508;4.980;2023-10-13T06:05:29;10.80;;;9.75;;
10383;SDS011;5238;43.508;4.980;2023-10-13T06:08:15;11.80;;;10.52;;
10383;SDS011;5238;43.508;4.980;2023-10-13T06:11:02;11.25;;;10.02;;
10383;SDS011;5238;43.508;4.980;2023-10-13T06:13:47;12.25;;;10.77;;
10383;SDS011;5238;43.508;4.980;2023-10-13T06:16:32;13.30;;;10.35;;
10383;SDS011;5238;43.508;4.980;2023-10-13T06:19:16;12.35;;;11.15;;
10383;SDS011;5238;43.508;4.980;2023-10-13T06:22:00;11.88;;;10.68;;
10383;SDS011;5238;43.508;4.980;2023-10-13T06:24:48;14.73;;;11.07;;
10383;SDS011;5238;43.508;4.980;2023-10-13T06:27:33;12.25;;;10.90;;
10383;SDS011;5238;43.508;4.980;2023-10-13T06:30:17;11.98;;;10.63;;
10383;SDS011;5238;43.508;4.980;2023-10-13T06:32:44;13.38;;;11.98;;
10383;SDS011;5238;43.508;4.980;2023-10-13T06:35:11;12.27;;;11.07;;
10383;SDS011;5238;43.508;4.980;2023-10-13T06:37:48;11.77;;;10.68;;
10383;SDS011;5238;43.508;4.980;2023-10-13T06:40:16;10.73;;;9.70;;
10383;SDS011;5238;43.508;4.980;2023-10-13T06:42:58;13.10;;;11.07;;
10383;SDS011;5238;43.508;4.980;2023-10-13T06:45:38;12.27;;;11.18;;
10383;SDS011;5238;43.508;4.980;2023-10-13T06:48:05;11.80;;;10.63;;
10383;SDS011;5238;43.508;4.980;2023-10-13T06:50:36;12.20;;;11.07;;
10383;SDS011;5238;43.508;4.980;2023-10-13T06:53:06;12.27;;;10.98;;
10383;SDS011;5238;43.508;4.980;2023-10-13T06:55:38;12.70;;;11.00;;
10383;SDS011;5238;43.508;4.980;2023-10-13T06:58:06;13.40;;;10.98;;
10383;SDS011;5238;43.508;4.980;2023-10-13T07:00:38;13.82;;;11.13;;
10383;SDS011;5238;43.508;4.980;2023-10-13T07:03:06;13.27;;;11.98;;
10383;SDS011;5238;43.508;4.980;2023-10-13T07:05:35;13.57;;;10.95;;
10383;SDS011;5238;43.508;4.980;2023-10-13T07:08:04;12.77;;;11.27;;
10383;SDS011;5238;43.508;4.980;2023-10-13T07:10:32;12.77;;;11.13;;
10383;SDS011;5238;43.508;4.980;2023-10-13T07:13:11;12.25;;;11.00;;
10383;SDS011;5238;43.508;4.980;2023-10-13T07:15:39;12.30;;;11.07;;
10383;SDS011;5238;43.508;4.980;2023-10-13T07:18:11;15.40;;;11.30;;
10383;SDS011;5238;43.508;4.980;2023-10-13T07:20:40;13.80;;;11.65;;
10383;SDS011;5238;43.508;4.980;2023-10-13T07:23:10;14.13;;;12.13;;
10383;SDS011;5238;43.508;4.980;2023-10-13T07:25:43;13.23;;;11.65;;
10383;SDS011;5238;43.508;4.980;2023-10-13T07:28:20;12.30;;;10.75;;
10383;SDS011;5238;43.508;4.980;2023-10-13T07:30:47;12.05;;;10.93;;
10383;SDS011;5238;43.508;4.980;2023-10-13T07:33:36;12.07;;;10.52;;
10383;SDS011;5238;43.508;4.980;2023-10-13T07:36:03;13.77;;;10.73;;
10383;SDS011;5238;43.508;4.980;2023-10-13T07:38:36;11.80;;;10.57;;
10383;SDS011;5238;43.508;4.980;2023-10-13T07:41:04;12.30;;;11.00;;
10383;SDS011;5238;43.508;4.980;2023-10-13T07:43:36;11.15;;;10.05;;
10383;SDS011;5238;43.508;4.980;2023-10-13T07:46:03;11.23;;;9.57;;
10383;SDS011;5238;43.508;4.980;2023-10-13T07:48:35;12.32;;;9.50;;
10383;SDS011;5238;43.508;4.980;2023-10-13T07:51:03;14.82;;;9.95;;
10383;SDS011;5238;43.508;4.980;2023-10-13T07:53:35;12.52;;;9.45;;
10383;SDS011;5238;43.508;4.980;2023-10-13T07:56:05;10.10;;;9.20;;
10383;SDS011;5238;43.508;4.980;2023-10-13T07:58:33;10.15;;;8.93;;
10383;SDS011;5238;43.508;4.980;2023-10-13T08:01:12;10.98;;;8.93;;
10383;SDS011;5238;43.508;4.980;2023-10-13T08:03:43;9.38;;;8.57;;
10383;SDS011;5238;43.508;4.980;2023-10-13T08:06:11;10.38;;;8.25;;
10383;SDS011;5238;43.508;4.980;2023-10-13T08:08:46;9.20;;;8.13;;
10383;SDS011;5238;43.508;4.980;2023-10-13T08:11:18;9.75;;;8.75;;
10383;SDS011;5238;43.508;4.980;2023-10-13T08:13:57;11.13;;;9.20;;
10383;SDS011;5238;43.508;4.980;2023-10-13T08:16:25;11.25;;;9.18;;
10383;SDS011;5238;43.508;4.980;2023-10-13T08:19:11;9.75;;;8.75;;
10383;SDS011;5238;43.508;4.980;2023-10-13T08:21:40;9.27;;;8.38;;
10383;SDS011;5238;43.508;4.980;2023-10-13T08:24:14;9.10;;;8.20;;
10383;SDS011;5238;43.508;4.980;2023-10-13T08:26:50;9.80;;;8.80;;
10383;SDS011;5238;43.508;4.980;2023-10-13T08:29:35;9.05;;;8.05;;
10383;SDS011;5238;43.508;4.980;2023-10-13T08:32:31;9.45;;;8.43;;
10383;SDS011;5238;43.508;4.980;2023-10-13T08:35:19;10.65;;;8.43;;
10383;SDS011;5238;43.508;4.980;2023-10-13T08:37:51;12.63;;;9.57;;
10383;SDS011;5238;43.508;4.980;2023-10-13T08:40:29;9.30;;;8.40;;
10383;SDS011;5238;43.508;4.980;2023-10-13T08:43:29;9.15;;;8.13;;
10383;SDS011;5238;43.508;4.980;2023-10-13T08:46:09;10.02;;;9.02;;
10383;SDS011;5238;43.508;4.980;2023-10-13T08:48:55;10.05;;;8.85;;
10383;SDS011;5238;43.508;4.980;2023-10-13T08:51:42;11.35;;;9.38;;
10383;SDS011;5238;43.508;4.980;2023-10-13T08:54:10;9.93;;;8.93;;
10383;SDS011;5238;43.508;4.980;2023-10-13T08:56:46;12.13;;;10.02;;
10383;SDS011;5238;43.508;4.980;2023-10-13T08:59:20;10.20;;;9.10;;
10383;SDS011;5238;43.508;4.980;2023-10-13T09:02:00;13.52;;;8.82;;
10383;SDS011;5238;43.508;4.980;2023-10-13T09:04:40;14.48;;;9.32;;
10383;SDS011;5238;43.508;4.980;2023-10-13T09:07:10;11.27;;;9.63;;
10383;SDS011;5238;43.508;4.980;2023-10-13T09:09:46;13.88;;;9.68;;
10383;SDS011;5238;43.508;4.980;2023-10-13T09:12:57;13.60;;;9.48;;
10383;SDS011;5238;43.508;4.980;2023-10-13T09:15:28;10.60;;;9.15;;
10383;SDS011;5238;43.508;4.980;2023-10-13T09:18:25;10.10;;;9.10;;
10383;SDS011;5238;43.508;4.980;2023-10-13T09:21:07;14.18;;;9.32;;
10383;SDS011;5238;43.508;4.980;2023-10-13T09:23:55;10.60;;;8.98;;
10383;SDS011;5238;43.508;4.980;2023-10-13T09:26:42;9.70;;;8.13;;
10383;SDS011;5238;43.508;4.980;2023-10-13T09:29:16;9.77;;;8.65;;
10383;SDS011;5238;43.508;4.980;2023-10-13T09:31:43;11.10;;;8.90;;
10383;SDS011;5238;43.508;4.980;2023-10-13T09:34:22;9.48;;;8.48;;
10383;SDS011;5238;43.508;4.980;2023-10-13T09:36:49;9.95;;;8.70;;
10383;SDS011;5238;43.508;4.980;2023-10-13T09:39:22;10.07;;;9.05;;
10383;SDS011;5238;43.508;4.980;2023-10-13T09:41:59;12.52;;;7.57;;
10383;SDS011;5238;43.508;4.980;2023-10-13T09:44:28;9.55;;;7.60;;
10383;SDS011;5238;43.508;4.980;2023-10-13T09:46:57;8.63;;;7.80;;
10383;SDS011;5238;43.508;4.980;2023-10-13T09:49:37;9.13;;;7.95;;
10383;SDS011;5238;43.508;4.980;2023-10-13T09:52:15;9.32;;;7.72;;
10383;SDS011;5238;43.508;4.980;2023-10-13T09:57:37;9.07;;;6.47;;
10383;SDS011;5238;43.508;4.980;2023-10-13T10:00:11;9.48;;;6.20;;
10383;SDS011;5238;43.508;4.980;2023-10-13T10:03:11;10.98;;;6.53;;
10383;SDS011;5238;43.508;4.980;2023-10-13T10:05:59;10.45;;;7.15;;
10383;SDS011;5238;43.508;4.980;2023-10-13T10:08:31;9.43;;;6.47;;
10383;SDS011;5238;43.508;4.980;2023-10-13T10:13:58;7.72;;;7.00;;
10383;SDS011;5238;43.508;4.980;2023-10-13T10:16:37;9.82;;;7.13;;
10383;SDS011;5238;43.508;4.980;2023-10-13T10:19:11;8.25;;;6.85;;
10383;SDS011;5238;43.508;4.980;2023-10-13T10:21:40;9.82;;;7.40;;
10383;SDS011;5238;43.508;4.980;2023-10-13T10:24:15;8.57;;;6.88;;
10383;SDS011;5238;43.508;4.980;2023-10-13T10:26:52;6.85;;;6.05;;
10383;SDS011;5238;43.508;4.980;2023-10-13T10:29:19;8.02;;;6.80;;
10383;SDS011;5238;43.508;4.980;2023-10-13T10:31:47;8.35;;;6.70;;
10383;SDS011;5238;43.508;4.980;2023-10-13T10:34:14;7.28;;;6.57;;
10383;SDS011;5238;43.508;4.980;2023-10-13T10:36:47;8.07;;;7.00;;
10383;SDS011;5238;43.508;4.980;2023-10-13T10:39:16;9.02;;;6.50;;
10383;SDS011;5238;43.508;4.980;2023-10-13T10:41:44;7.53;;;6.65;;
10383;SDS011;5238;43.508;4.980;2023-10-13T10:44:17;7.55;;;6.43;;
10383;SDS011;5238;43.508;4.980;2023-10-13T10:46:48;8.95;;;6.18;;
10383;SDS011;5238;43.508;4.980;2023-10-13T10:49:23;10.02;;;6.07;;
10383;SDS011;5238;43.508;4.980;2023-10-13T10:51:58;7.38;;;6.68;;
10383;SDS011;5238;43.508;4.980;2023-10-13T10:54:29;10.00;;;6.60;;
10383;SDS011;5238;43.508;4.980;2023-10-13T10:56:57;9.05;;;5.90;;
10383;SDS011;5238;43.508;4.980;2023-10-13T10:59:36;10.27;;;6.32;;
10383;SDS011;5238;43.508;4.980;2023-10-13T11:02:04;6.05;;;5.45;;
10383;SDS011;5238;43.508;4.980;2023-10-13T11:04:32;7.95;;;5.72;;
10383;SDS011;5238;43.508;4.980;2023-10-13T11:07:07;6.70;;;5.40;;
10383;SDS011;5238;43.508;4.980;2023-10-13T11:09:35;7.25;;;5.55;;
10383;SDS011;5238;43.508;4.980;2023-10-13T11:12:11;6.20;;;5.25;;
10383;SDS011;5238;43.508;4.980;2023-10-13T11:14:49;6.22;;;5.63;;
10383;SDS011;5238;43.508;4.980;2023-10-13T11:17:27;6.13;;;5.53;;
10383;SDS011;5238;43.508;4.980;2023-10-13T11:20:10;9.38;;;5.55;;
10383;SDS011;5238;43.508;4.980;2023-10-13T11:22:46;6.78;;;5.20;;
10383;SDS011;5238;43.508;4.980;2023-10-13T11:25:21;7.00;;;5.20;;
10383;SDS011;5238;43.508;4.980;2023-10-13T11:27:54;6.13;;;5.40;;
10383;SDS011;5238;43.508;4.980;2023-10-13T11:30:24;8.02;;;5.82;;
10383;SDS011;5238;43.508;4.980;2023-10-13T11:32:58;9.13;;;5.20;;
10383;SDS011;5238;43.508;4.980;2023-10-13T11:35:26;6.88;;;5.45;;
10383;SDS011;5238;43.508;4.980;2023-10-13T11:38:15;7.03;;;5.20;;
10383;SDS011;5238;43.508;4.980;2023-10-13T11:40:50;6.80;;;5.10;;
10383;SDS011;5238;43.508;4.980;2023-10-13T11:43:37;8.20;;;5.82;;
10383;SDS011;5238;43.508;4.980;2023-10-13T11:46:23;7.40;;;4.82;;
10383;SDS011;5238;43.508;4.980;2023-10-13T11:49:08;8.45;;;5.63;;
10383;SDS011;5238;43.508;4.980;2023-10-13T11:51:43;6.03;;;5.25;;
10383;SDS011;5238;43.508;4.980;2023-10-13T11:54:13;5.43;;;4.93;;
10383;SDS011;5238;43.508;4.980;2023-10-13T11:56:40;6.45;;;5.65;;
10383;SDS011;5238;43.508;4.980;2023-10-13T11:59:08;7.15;;;5.18;;
10383;SDS011;5238;43.508;4.980;2023-10-13T12:01:42;6.20;;;5.38;;
10383;SDS011;5238;43.508;4.980;2023-10-13T12:04:35;6.50;;;5.43;;
10383;SDS011;5238;43.508;4.980;2023-10-13T12:07:09;7.03;;;5.78;;
10383;SDS011;5238;43.508;4.980;2023-10-13T12:09:46;6.72;;;5.30;;
10383;SDS011;5238;43.508;4.980;2023-10-13T12:12:31;8.18;;;5.30;;
10383;SDS011;5238;43.508;4.980;2023-10-13T12:15:06;8.60;;;5.43;;
10383;SDS011;5238;43.508;4.980;2023-10-13T12:17:39;5.35;;;4.90;;
10383;SDS011;5238;43.508;4.980;2023-10-13T12:20:10;6.55;;;5.30;;
10383;SDS011;5238;43.508;4.980;2023-10-13T12:22:43;5.07;;;4.53;;
10383;SDS011;5238;43.508;4.980;2023-10-13T12:25:21;12.75;;;5.07;;
10383;SDS011;5238;43.508;4.980;2023-10-13T12:28:09;10.10;;;5.65;;
10383;SDS011;5238;43.508;4.980;2023-10-13T12:30:43;6.63;;;4.72;;
10383;SDS011;5238;43.508;4.980;2023-10-13T12:33:18;9.05;;;4.70;;
10383;SDS011;5238;43.508;4.980;2023-10-13T12:35:57;6.82;;;4.80;;
10383;SDS011;5238;43.508;4.980;2023-10-13T12:38:32;7.88;;;5.03;;
10383;SDS011;5238;43.508;4.980;2023-10-13T12:41:45;7.60;;;5.13;;
10383;SDS011;5238;43.508;4.980;2023-10-13T12:44:29;5.78;;;5.18;;
10383;SDS011;5238;43.508;4.980;2023-10-13T12:47:13;5.13;;;4.55;;
10383;SDS011;5238;43.508;4.980;2023-10-13T12:49:57;6.05;;;5.00;;
10383;SDS011;5238;43.508;4.980;2023-10-13T12:52:30;7.78;;;5.28;;
10383;SDS011;5238;43.508;4.980;2023-10-13T12:54:58;5.97;;;5.30;;
10383;SDS011;5238;43.508;4.980;2023-10-13T12:57:32;5.68;;;4.93;;
10383;SDS011;5238;43.508;4.980;2023-10-13T13:00:07;7.88;;;5.38;;
10383;SDS011;5238;43.508;4.980;2023-10-13T13:02:46;6.60;;;4.82;;
10383;SDS011;5238;43.508;4.980;2023-10-13T13:05:16;6.97;;;5.05;;
10383;SDS011;5238;43.508;4.980;2023-10-13T13:07:47;9.43;;;4.95;;
10383;SDS011;5238;43.508;4.980;2023-10-13T13:10:17;6.28;;;5.07;;
10383;SDS011;5238;43.508;4.980;2023-10-13T13:12:47;6.78;;;4.60;;
10383;SDS011;5238;43.508;4.980;2023-10-13T13:15:14;5.40;;;4.50;;
10383;SDS011;5238;43.508;4.980;2023-10-13T13:17:48;5.72;;;5.10;;
10383;SDS011;5238;43.508;4.980;2023-10-13T13:20:16;7.88;;;4.68;;
10383;SDS011;5238;43.508;4.980;2023-10-13T13:22:53;5.35;;;4.85;;
10383;SDS011;5238;43.508;4.980;2023-10-13T13:25:20;8.25;;;5.00;;
10383;SDS011;5238;43.508;4.980;2023-10-13T13:27:56;5.90;;;5.20;;
10383;SDS011;5238;43.508;4.980;2023-10-13T13:30:29;9.75;;;5.28;;
10383;SDS011;5238;43.508;4.980;2023-10-13T13:32:59;8.65;;;5.60;;
10383;SDS011;5238;43.508;4.980;2023-10-13T13:35:29;6.07;;;4.85;;
10383;SDS011;5238;43.508;4.980;2023-10-13T13:38:00;13.02;;;5.65;;
10383;SDS011;5238;43.508;4.980;2023-10-13T13:40:36;6.82;;;5.25;;
10383;SDS011;5238;43.508;4.980;2023-10-13T13:43:05;6.88;;;5.53;;
10383;SDS011;5238;43.508;4.980;2023-10-13T13:45:32;8.77;;;5.50;;
10383;SDS011;5238;43.508;4.980;2023-10-13T13:47:59;6.75;;;4.90;;
10383;SDS011;5238;43.508;4.980;2023-10-13T13:50:32;11.18;;;5.20;;
10383;SDS011;5238;43.508;4.980;2023-10-13T13:53:06;6.85;;;5.45;;
10383;SDS011;5238;43.508;4.980;2023-10-13T13:55:35;6.65;;;5.32;;
10383;SDS011;5238;43.508;4.980;2023-10-13T13:58:06;7.28;;;5.60;;
10383;SDS011;5238;43.508;4.980;2023-10-13T14:00:34;7.93;;;5.18;;
10383;SDS011;5238;43.508;4.980;2023-10-13T14:03:05;10.40;;;4.90;;
10383;SDS011;5238;43.508;4.980;2023-10-13T14:05:40;5.93;;;4.68;;
10383;SDS011;5238;43.508;4.980;2023-10-13T14:08:08;8.27;;;5.45;;
10383;SDS011;5238;43.508;4.980;2023-10-13T14:10:37;6.43;;;5.07;;
10383;SDS011;5238;43.508;4.980;2023-10-13T14:13:19;6.88;;;5.50;;
10383;SDS011;5238;43.508;4.980;2023-10-13T14:15:50;8.38;;;5.03;;
10383;SDS011;5238;43.508;4.980;2023-10-13T14:18:21;7.00;;;5.10;;
10383;SDS011;5238;43.508;4.980;2023-10-13T14:20:55;6.22;;;5.43;;
10383;SDS011;5238;43.508;4.980;2023-10-13T14:23:27;8.13;;;5.65;;
10383;SDS011;5238;43.508;4.980;2023-10-13T14:25:55;8.52;;;5.88;;
10383;SDS011;5238;43.508;4.980;2023-10-13T14:28:24;6.18;;;4.93;;
10383;SDS011;5238;43.508;4.980;2023-10-13T14:31:03;6.90;;;5.47;;
10383;SDS011;5238;43.508;4.980;2023-10-13T14:33:34;6.38;;;5.50;;
10383;SDS011;5238;43.508;4.980;2023-10-13T14:36:02;6.07;;;5.35;;
10383;SDS011;5238;43.508;4.980;2023-10-13T14:38:29;8.77;;;5.25;;
10383;SDS011;5238;43.508;4.980;2023-10-13T14:40:56;8.85;;;5.78;;
10383;SDS011;5238;43.508;4.980;2023-10-13T14:43:25;9.80;;;5.40;;
10383;SDS011;5238;43.508;4.980;2023-10-13T14:45:52;9.05;;;5.53;;
10383;SDS011;5238;43.508;4.980;2023-10-13T14:48:19;7.97;;;5.80;;
10383;SDS011;5238;43.508;4.980;2023-10-13T14:50:49;6.45;;;5.45;;
10383;SDS011;5238;43.508;4.980;2023-10-13T14:53:16;7.20;;;5.00;;
10383;SDS011;5238;43.508;4.980;2023-10-13T14:55:44;7.72;;;5.45;;
10383;SDS011;5238;43.508;4.980;2023-10-13T14:58:12;6.28;;;5.13;;
10383;SDS011;5238;43.508;4.980;2023-10-13T15:00:42;9.25;;;5.13;;
10383;SDS011;5238;43.508;4.980;2023-10-13T15:03:10;7.85;;;5.30;;
10383;SDS011;5238;43.508;4.980;2023-10-13T15:05:37;9.05;;;5.57;;
10383;SDS011;5238;43.508;4.980;2023-10-13T15:08:08;11.73;;;5.78;;
10383;SDS011;5238;43.508;4.980;2023-10-13T15:10:35;9.60;;;5.38;;
10383;SDS011;5238;43.508;4.980;2023-10-13T15:13:02;9.13;;;5.38;;
10383;SDS011;5238;43.508;4.980;2023-10-13T15:15:30;8.30;;;5.50;;
10383;SDS011;5238;43.508;4.980;2023-10-13T15:17:58;11.10;;;4.65;;
10383;SDS011;5238;43.508;4.980;2023-10-13T15:20:26;8.43;;;4.93;;
10383;SDS011;5238;43.508;4.980;2023-10-13T15:22:53;7.50;;;5.35;;
10383;SDS011;5238;43.508;4.980;2023-10-13T15:25:25;8.65;;;4.93;;
10383;SDS011;5238;43.508;4.980;2023-10-13T15:27:59;10.95;;;5.65;;
10383;SDS011;5238;43.508;4.980;2023-10-13T15:30:28;10.65;;;5.60;;
10383;SDS011;5238;43.508;4.980;2023-10-13T15:33:10;7.00;;;5.43;;
10383;SDS011;5238;43.508;4.980;2023-10-13T15:35:38;8.20;;;5.13;;